<?xml version="1.0" encoding="UTF-8" standalone="no" ?>
<gpx xmlns="http://www.topografix.com/GPX/1/1" xmlns:xsi="http://www.w3.org/2001/XMLSchema-instance" xsi:schemaLocation="http://www.topografix.com/GPX/1/1 http://www.topografix.com/GPX/1/1/gpx.xsd" version="1.1" creator="VisuGPX - https://www.visugpx.com">
  <metadata>
    <name>La Ramee par la Mounede - 8.8km</name>
    <desc><![CDATA[Tour du lac de La Ramee]]></desc>
  </metadata>
  <trk>
    <name><![CDATA[Tournefeuille Course à pied]]></name>
    <trkseg>
      <trkpt lat="43.57895" lon="1.37841">
        <ele>158</ele>
        <time>2015-01-27T11:40:12.000Z</time>
      </trkpt>
      <trkpt lat="43.57889" lon="1.37839">
        <ele>158</ele>
        <time>2015-01-27T11:40:16.000Z</time>
      </trkpt>
      <trkpt lat="43.57877" lon="1.37846">
        <ele>158.39999389648</ele>
        <time>2015-01-27T11:40:20.000Z</time>
      </trkpt>
      <trkpt lat="43.57859" lon="1.37861">
        <ele>158.39999389648</ele>
        <time>2015-01-27T11:40:25.000Z</time>
      </trkpt>
      <trkpt lat="43.57847" lon="1.37876">
        <ele>158.39999389648</ele>
        <time>2015-01-27T11:40:29.000Z</time>
      </trkpt>
      <trkpt lat="43.57844" lon="1.37891">
        <ele>158.39999389648</ele>
        <time>2015-01-27T11:40:32.000Z</time>
      </trkpt>
      <trkpt lat="43.57843" lon="1.37895">
        <ele>158.19999694824</ele>
        <time>2015-01-27T11:40:33.000Z</time>
      </trkpt>
      <trkpt lat="43.57831" lon="1.3791">
        <ele>157.80000305176</ele>
        <time>2015-01-27T11:40:37.000Z</time>
      </trkpt>
      <trkpt lat="43.57816" lon="1.37911">
        <ele>157.80000305176</ele>
        <time>2015-01-27T11:40:41.000Z</time>
      </trkpt>
      <trkpt lat="43.57798" lon="1.37911">
        <ele>157.80000305176</ele>
        <time>2015-01-27T11:40:46.000Z</time>
      </trkpt>
      <trkpt lat="43.57795" lon="1.37911">
        <ele>157.80000305176</ele>
        <time>2015-01-27T11:40:47.000Z</time>
      </trkpt>
      <trkpt lat="43.57777" lon="1.37919">
        <ele>157.80000305176</ele>
        <time>2015-01-27T11:40:52.000Z</time>
      </trkpt>
      <trkpt lat="43.57759" lon="1.37925">
        <ele>157.60000610352</ele>
        <time>2015-01-27T11:40:57.000Z</time>
      </trkpt>
      <trkpt lat="43.5774" lon="1.37935">
        <ele>157.19999694824</ele>
        <time>2015-01-27T11:41:03.000Z</time>
      </trkpt>
      <trkpt lat="43.57737" lon="1.37937">
        <ele>157.19999694824</ele>
        <time>2015-01-27T11:41:04.000Z</time>
      </trkpt>
      <trkpt lat="43.57726" lon="1.37946">
        <ele>157</ele>
        <time>2015-01-27T11:41:08.000Z</time>
      </trkpt>
      <trkpt lat="43.57707" lon="1.37959">
        <ele>156.60000610352</ele>
        <time>2015-01-27T11:41:14.000Z</time>
      </trkpt>
      <trkpt lat="43.57688" lon="1.37971">
        <ele>156.19999694824</ele>
        <time>2015-01-27T11:41:20.000Z</time>
      </trkpt>
      <trkpt lat="43.57682" lon="1.37975">
        <ele>156.19999694824</ele>
        <time>2015-01-27T11:41:22.000Z</time>
      </trkpt>
      <trkpt lat="43.57666" lon="1.37983">
        <ele>157</ele>
        <time>2015-01-27T11:41:27.000Z</time>
      </trkpt>
      <trkpt lat="43.57648" lon="1.37996">
        <ele>158</ele>
        <time>2015-01-27T11:41:33.000Z</time>
      </trkpt>
      <trkpt lat="43.57644" lon="1.37998">
        <ele>158.19999694824</ele>
        <time>2015-01-27T11:41:34.000Z</time>
      </trkpt>
      <trkpt lat="43.57627" lon="1.3801">
        <ele>159.19999694824</ele>
        <time>2015-01-27T11:41:40.000Z</time>
      </trkpt>
      <trkpt lat="43.57609" lon="1.38024">
        <ele>160.60000610352</ele>
        <time>2015-01-27T11:41:46.000Z</time>
      </trkpt>
      <trkpt lat="43.5759" lon="1.38036">
        <ele>160.80000305176</ele>
        <time>2015-01-27T11:41:52.000Z</time>
      </trkpt>
      <trkpt lat="43.57571" lon="1.38051">
        <ele>160.80000305176</ele>
        <time>2015-01-27T11:41:58.000Z</time>
      </trkpt>
      <trkpt lat="43.57556" lon="1.3806">
        <ele>160.80000305176</ele>
        <time>2015-01-27T11:42:03.000Z</time>
      </trkpt>
      <trkpt lat="43.57537" lon="1.38073">
        <ele>160.19999694824</ele>
        <time>2015-01-27T11:42:09.000Z</time>
      </trkpt>
      <trkpt lat="43.57534" lon="1.38075">
        <ele>160.19999694824</ele>
        <time>2015-01-27T11:42:10.000Z</time>
      </trkpt>
      <trkpt lat="43.57521" lon="1.38089">
        <ele>159.80000305176</ele>
        <time>2015-01-27T11:42:15.000Z</time>
      </trkpt>
      <trkpt lat="43.57507" lon="1.38101">
        <ele>159</ele>
        <time>2015-01-27T11:42:20.000Z</time>
      </trkpt>
      <trkpt lat="43.57489" lon="1.38105">
        <ele>158.19999694824</ele>
        <time>2015-01-27T11:42:25.000Z</time>
      </trkpt>
      <trkpt lat="43.57473" lon="1.38117">
        <ele>157.80000305176</ele>
        <time>2015-01-27T11:42:31.000Z</time>
      </trkpt>
      <trkpt lat="43.5747" lon="1.38119">
        <ele>158</ele>
        <time>2015-01-27T11:42:32.000Z</time>
      </trkpt>
      <trkpt lat="43.57452" lon="1.38132">
        <ele>158.39999389648</ele>
        <time>2015-01-27T11:42:38.000Z</time>
      </trkpt>
      <trkpt lat="43.57441" lon="1.38141">
        <ele>158.80000305176</ele>
        <time>2015-01-27T11:42:42.000Z</time>
      </trkpt>
      <trkpt lat="43.5742" lon="1.38151">
        <ele>158.39999389648</ele>
        <time>2015-01-27T11:42:49.000Z</time>
      </trkpt>
      <trkpt lat="43.57417" lon="1.38153">
        <ele>158.19999694824</ele>
        <time>2015-01-27T11:42:50.000Z</time>
      </trkpt>
      <trkpt lat="43.57401" lon="1.38165">
        <ele>157.39999389648</ele>
        <time>2015-01-27T11:42:55.000Z</time>
      </trkpt>
      <trkpt lat="43.57382" lon="1.38178">
        <ele>156.39999389648</ele>
        <time>2015-01-27T11:43:01.000Z</time>
      </trkpt>
      <trkpt lat="43.57363" lon="1.38182">
        <ele>156.60000610352</ele>
        <time>2015-01-27T11:43:06.000Z</time>
      </trkpt>
      <trkpt lat="43.57349" lon="1.38178">
        <ele>156.80000305176</ele>
        <time>2015-01-27T11:43:10.000Z</time>
      </trkpt>
      <trkpt lat="43.57334" lon="1.38173">
        <ele>157.60000610352</ele>
        <time>2015-01-27T11:43:15.000Z</time>
      </trkpt>
      <trkpt lat="43.57318" lon="1.38165">
        <ele>158.39999389648</ele>
        <time>2015-01-27T11:43:20.000Z</time>
      </trkpt>
      <trkpt lat="43.57308" lon="1.38159">
        <ele>158.80000305176</ele>
        <time>2015-01-27T11:43:24.000Z</time>
      </trkpt>
      <trkpt lat="43.57296" lon="1.38146">
        <ele>159.39999389648</ele>
        <time>2015-01-27T11:43:29.000Z</time>
      </trkpt>
      <trkpt lat="43.57287" lon="1.38125">
        <ele>160.39999389648</ele>
        <time>2015-01-27T11:43:34.000Z</time>
      </trkpt>
      <trkpt lat="43.57276" lon="1.38108">
        <ele>161.39999389648</ele>
        <time>2015-01-27T11:43:39.000Z</time>
      </trkpt>
      <trkpt lat="43.57264" lon="1.38095">
        <ele>162.19999694824</ele>
        <time>2015-01-27T11:43:44.000Z</time>
      </trkpt>
      <trkpt lat="43.57246" lon="1.38081">
        <ele>162</ele>
        <time>2015-01-27T11:43:50.000Z</time>
      </trkpt>
      <trkpt lat="43.57232" lon="1.38074">
        <ele>162</ele>
        <time>2015-01-27T11:43:55.000Z</time>
      </trkpt>
      <trkpt lat="43.57213" lon="1.38064">
        <ele>161.60000610352</ele>
        <time>2015-01-27T11:44:01.000Z</time>
      </trkpt>
      <trkpt lat="43.57201" lon="1.38058">
        <ele>161.39999389648</ele>
        <time>2015-01-27T11:44:05.000Z</time>
      </trkpt>
      <trkpt lat="43.57185" lon="1.38045">
        <ele>161</ele>
        <time>2015-01-27T11:44:10.000Z</time>
      </trkpt>
      <trkpt lat="43.57172" lon="1.38032">
        <ele>160.80000305176</ele>
        <time>2015-01-27T11:44:15.000Z</time>
      </trkpt>
      <trkpt lat="43.57159" lon="1.38014">
        <ele>160.60000610352</ele>
        <time>2015-01-27T11:44:20.000Z</time>
      </trkpt>
      <trkpt lat="43.57157" lon="1.37995">
        <ele>160.60000610352</ele>
        <time>2015-01-27T11:44:24.000Z</time>
      </trkpt>
      <trkpt lat="43.57155" lon="1.37979">
        <ele>160.60000610352</ele>
        <time>2015-01-27T11:44:28.000Z</time>
      </trkpt>
      <trkpt lat="43.57153" lon="1.37977">
        <ele>160.60000610352</ele>
        <time>2015-01-27T11:44:29.000Z</time>
      </trkpt>
      <trkpt lat="43.57146" lon="1.37967">
        <ele>160.60000610352</ele>
        <time>2015-01-27T11:44:32.000Z</time>
      </trkpt>
      <trkpt lat="43.57137" lon="1.3795">
        <ele>160.39999389648</ele>
        <time>2015-01-27T11:44:36.000Z</time>
      </trkpt>
      <trkpt lat="43.57137" lon="1.37946">
        <ele>160.39999389648</ele>
        <time>2015-01-27T11:44:37.000Z</time>
      </trkpt>
      <trkpt lat="43.57134" lon="1.37928">
        <ele>160.39999389648</ele>
        <time>2015-01-27T11:44:41.000Z</time>
      </trkpt>
      <trkpt lat="43.57134" lon="1.37906">
        <ele>160.60000610352</ele>
        <time>2015-01-27T11:44:46.000Z</time>
      </trkpt>
      <trkpt lat="43.57126" lon="1.37886">
        <ele>160.39999389648</ele>
        <time>2015-01-27T11:44:51.000Z</time>
      </trkpt>
      <trkpt lat="43.57122" lon="1.37868">
        <ele>160.19999694824</ele>
        <time>2015-01-27T11:44:56.000Z</time>
      </trkpt>
      <trkpt lat="43.57118" lon="1.37846">
        <ele>159.80000305176</ele>
        <time>2015-01-27T11:45:01.000Z</time>
      </trkpt>
      <trkpt lat="43.57119" lon="1.37833">
        <ele>159.60000610352</ele>
        <time>2015-01-27T11:45:04.000Z</time>
      </trkpt>
      <trkpt lat="43.57119" lon="1.3783">
        <ele>159.60000610352</ele>
        <time>2015-01-27T11:45:05.000Z</time>
      </trkpt>
      <trkpt lat="43.5712" lon="1.37814">
        <ele>159.19999694824</ele>
        <time>2015-01-27T11:45:09.000Z</time>
      </trkpt>
      <trkpt lat="43.57118" lon="1.37798">
        <ele>159</ele>
        <time>2015-01-27T11:45:13.000Z</time>
      </trkpt>
      <trkpt lat="43.57119" lon="1.37793">
        <ele>159</ele>
        <time>2015-01-27T11:45:14.000Z</time>
      </trkpt>
      <trkpt lat="43.57116" lon="1.37784">
        <ele>158.80000305176</ele>
        <time>2015-01-27T11:45:17.000Z</time>
      </trkpt>
      <trkpt lat="43.57115" lon="1.37775">
        <ele>158.60000610352</ele>
        <time>2015-01-27T11:45:19.000Z</time>
      </trkpt>
      <trkpt lat="43.57107" lon="1.37757">
        <ele>158.39999389648</ele>
        <time>2015-01-27T11:45:24.000Z</time>
      </trkpt>
      <trkpt lat="43.57112" lon="1.3774">
        <ele>158.19999694824</ele>
        <time>2015-01-27T11:45:28.000Z</time>
      </trkpt>
      <trkpt lat="43.57114" lon="1.37723">
        <ele>158</ele>
        <time>2015-01-27T11:45:32.000Z</time>
      </trkpt>
      <trkpt lat="43.57111" lon="1.37704">
        <ele>158.19999694824</ele>
        <time>2015-01-27T11:45:37.000Z</time>
      </trkpt>
      <trkpt lat="43.57104" lon="1.37699">
        <ele>158.39999389648</ele>
        <time>2015-01-27T11:45:39.000Z</time>
      </trkpt>
      <trkpt lat="43.57102" lon="1.37697">
        <ele>158.39999389648</ele>
        <time>2015-01-27T11:45:40.000Z</time>
      </trkpt>
      <trkpt lat="43.57094" lon="1.37686">
        <ele>158.80000305176</ele>
        <time>2015-01-27T11:45:44.000Z</time>
      </trkpt>
      <trkpt lat="43.57084" lon="1.37667">
        <ele>159.60000610352</ele>
        <time>2015-01-27T11:45:49.000Z</time>
      </trkpt>
      <trkpt lat="43.57075" lon="1.37641">
        <ele>160.19999694824</ele>
        <time>2015-01-27T11:45:55.000Z</time>
      </trkpt>
      <trkpt lat="43.57066" lon="1.3762">
        <ele>160.39999389648</ele>
        <time>2015-01-27T11:46:00.000Z</time>
      </trkpt>
      <trkpt lat="43.57057" lon="1.37605">
        <ele>160.60000610352</ele>
        <time>2015-01-27T11:46:04.000Z</time>
      </trkpt>
      <trkpt lat="43.57044" lon="1.37589">
        <ele>161</ele>
        <time>2015-01-27T11:46:09.000Z</time>
      </trkpt>
      <trkpt lat="43.5703" lon="1.37571">
        <ele>161.60000610352</ele>
        <time>2015-01-27T11:46:14.000Z</time>
      </trkpt>
      <trkpt lat="43.5702" lon="1.3756">
        <ele>161.60000610352</ele>
        <time>2015-01-27T11:46:18.000Z</time>
      </trkpt>
      <trkpt lat="43.57007" lon="1.37542">
        <ele>160.80000305176</ele>
        <time>2015-01-27T11:46:23.000Z</time>
      </trkpt>
      <trkpt lat="43.56997" lon="1.37527">
        <ele>160</ele>
        <time>2015-01-27T11:46:27.000Z</time>
      </trkpt>
      <trkpt lat="43.56982" lon="1.37512">
        <ele>159.19999694824</ele>
        <time>2015-01-27T11:46:32.000Z</time>
      </trkpt>
      <trkpt lat="43.56967" lon="1.37505">
        <ele>159</ele>
        <time>2015-01-27T11:46:37.000Z</time>
      </trkpt>
      <trkpt lat="43.56949" lon="1.37499">
        <ele>158.80000305176</ele>
        <time>2015-01-27T11:46:43.000Z</time>
      </trkpt>
      <trkpt lat="43.56946" lon="1.37497">
        <ele>158.60000610352</ele>
        <time>2015-01-27T11:46:44.000Z</time>
      </trkpt>
      <trkpt lat="43.56929" lon="1.37487">
        <ele>158.19999694824</ele>
        <time>2015-01-27T11:46:50.000Z</time>
      </trkpt>
      <trkpt lat="43.5692" lon="1.3747">
        <ele>157.80000305176</ele>
        <time>2015-01-27T11:46:55.000Z</time>
      </trkpt>
      <trkpt lat="43.56917" lon="1.3745">
        <ele>157.19999694824</ele>
        <time>2015-01-27T11:47:00.000Z</time>
      </trkpt>
      <trkpt lat="43.56913" lon="1.3743">
        <ele>156.80000305176</ele>
        <time>2015-01-27T11:47:05.000Z</time>
      </trkpt>
      <trkpt lat="43.56907" lon="1.37401">
        <ele>156</ele>
        <time>2015-01-27T11:47:11.000Z</time>
      </trkpt>
      <trkpt lat="43.56902" lon="1.37375">
        <ele>156.60000610352</ele>
        <time>2015-01-27T11:47:15.000Z</time>
      </trkpt>
      <trkpt lat="43.56897" lon="1.3737">
        <ele>156.60000610352</ele>
        <time>2015-01-27T11:47:16.000Z</time>
      </trkpt>
      <trkpt lat="43.56897" lon="1.37367">
        <ele>156.80000305176</ele>
        <time>2015-01-27T11:47:18.000Z</time>
      </trkpt>
      <trkpt lat="43.56893" lon="1.37357">
        <ele>157</ele>
        <time>2015-01-27T11:47:22.000Z</time>
      </trkpt>
      <trkpt lat="43.56892" lon="1.37351">
        <ele>157.19999694824</ele>
        <time>2015-01-27T11:47:24.000Z</time>
      </trkpt>
      <trkpt lat="43.56892" lon="1.37339">
        <ele>157.39999389648</ele>
        <time>2015-01-27T11:47:28.000Z</time>
      </trkpt>
      <trkpt lat="43.569" lon="1.37327">
        <ele>157.60000610352</ele>
        <time>2015-01-27T11:47:32.000Z</time>
      </trkpt>
      <trkpt lat="43.56912" lon="1.37313">
        <ele>158</ele>
        <time>2015-01-27T11:47:37.000Z</time>
      </trkpt>
      <trkpt lat="43.56923" lon="1.37295">
        <ele>158.19999694824</ele>
        <time>2015-01-27T11:47:42.000Z</time>
      </trkpt>
      <trkpt lat="43.56931" lon="1.37275">
        <ele>158</ele>
        <time>2015-01-27T11:47:47.000Z</time>
      </trkpt>
      <trkpt lat="43.56939" lon="1.37255">
        <ele>158.19999694824</ele>
        <time>2015-01-27T11:47:52.000Z</time>
      </trkpt>
      <trkpt lat="43.56951" lon="1.37239">
        <ele>158.39999389648</ele>
        <time>2015-01-27T11:47:57.000Z</time>
      </trkpt>
      <trkpt lat="43.56963" lon="1.37232">
        <ele>158.60000610352</ele>
        <time>2015-01-27T11:48:01.000Z</time>
      </trkpt>
      <trkpt lat="43.56979" lon="1.37224">
        <ele>159.39999389648</ele>
        <time>2015-01-27T11:48:06.000Z</time>
      </trkpt>
      <trkpt lat="43.56998" lon="1.37215">
        <ele>160.19999694824</ele>
        <time>2015-01-27T11:48:12.000Z</time>
      </trkpt>
      <trkpt lat="43.57015" lon="1.37204">
        <ele>159.80000305176</ele>
        <time>2015-01-27T11:48:18.000Z</time>
      </trkpt>
      <trkpt lat="43.57031" lon="1.37189">
        <ele>159.39999389648</ele>
        <time>2015-01-27T11:48:24.000Z</time>
      </trkpt>
      <trkpt lat="43.57044" lon="1.37169">
        <ele>159.39999389648</ele>
        <time>2015-01-27T11:48:30.000Z</time>
      </trkpt>
      <trkpt lat="43.57059" lon="1.3716">
        <ele>159.39999389648</ele>
        <time>2015-01-27T11:48:35.000Z</time>
      </trkpt>
      <trkpt lat="43.57075" lon="1.37164">
        <ele>159.60000610352</ele>
        <time>2015-01-27T11:48:40.000Z</time>
      </trkpt>
      <trkpt lat="43.5708" lon="1.3716">
        <ele>159.80000305176</ele>
        <time>2015-01-27T11:48:42.000Z</time>
      </trkpt>
      <trkpt lat="43.57082" lon="1.37156">
        <ele>159.80000305176</ele>
        <time>2015-01-27T11:48:43.000Z</time>
      </trkpt>
      <trkpt lat="43.5709" lon="1.37133">
        <ele>160</ele>
        <time>2015-01-27T11:48:49.000Z</time>
      </trkpt>
      <trkpt lat="43.57097" lon="1.37114">
        <ele>159.60000610352</ele>
        <time>2015-01-27T11:48:54.000Z</time>
      </trkpt>
      <trkpt lat="43.57104" lon="1.37091">
        <ele>159.19999694824</ele>
        <time>2015-01-27T11:49:00.000Z</time>
      </trkpt>
      <trkpt lat="43.57109" lon="1.37071">
        <ele>159</ele>
        <time>2015-01-27T11:49:05.000Z</time>
      </trkpt>
      <trkpt lat="43.57116" lon="1.37047">
        <ele>158.80000305176</ele>
        <time>2015-01-27T11:49:11.000Z</time>
      </trkpt>
      <trkpt lat="43.57121" lon="1.37027">
        <ele>158.80000305176</ele>
        <time>2015-01-27T11:49:16.000Z</time>
      </trkpt>
      <trkpt lat="43.57122" lon="1.37024">
        <ele>158.80000305176</ele>
        <time>2015-01-27T11:49:17.000Z</time>
      </trkpt>
      <trkpt lat="43.57126" lon="1.37008">
        <ele>158.80000305176</ele>
        <time>2015-01-27T11:49:21.000Z</time>
      </trkpt>
      <trkpt lat="43.57132" lon="1.36983">
        <ele>158.60000610352</ele>
        <time>2015-01-27T11:49:27.000Z</time>
      </trkpt>
      <trkpt lat="43.57136" lon="1.36961">
        <ele>158.39999389648</ele>
        <time>2015-01-27T11:49:32.000Z</time>
      </trkpt>
      <trkpt lat="43.57142" lon="1.36941">
        <ele>158</ele>
        <time>2015-01-27T11:49:37.000Z</time>
      </trkpt>
      <trkpt lat="43.57147" lon="1.36916">
        <ele>158</ele>
        <time>2015-01-27T11:49:43.000Z</time>
      </trkpt>
      <trkpt lat="43.57151" lon="1.36896">
        <ele>158</ele>
        <time>2015-01-27T11:49:48.000Z</time>
      </trkpt>
      <trkpt lat="43.57156" lon="1.36879">
        <ele>158.39999389648</ele>
        <time>2015-01-27T11:49:53.000Z</time>
      </trkpt>
      <trkpt lat="43.57158" lon="1.36859">
        <ele>158.19999694824</ele>
        <time>2015-01-27T11:49:58.000Z</time>
      </trkpt>
      <trkpt lat="43.57155" lon="1.3684">
        <ele>157.60000610352</ele>
        <time>2015-01-27T11:50:03.000Z</time>
      </trkpt>
      <trkpt lat="43.57147" lon="1.36829">
        <ele>157.80000305176</ele>
        <time>2015-01-27T11:50:07.000Z</time>
      </trkpt>
      <trkpt lat="43.57142" lon="1.36823">
        <ele>157.80000305176</ele>
        <time>2015-01-27T11:50:09.000Z</time>
      </trkpt>
      <trkpt lat="43.5713" lon="1.36805">
        <ele>158.19999694824</ele>
        <time>2015-01-27T11:50:15.000Z</time>
      </trkpt>
      <trkpt lat="43.57119" lon="1.36788">
        <ele>159</ele>
        <time>2015-01-27T11:50:21.000Z</time>
      </trkpt>
      <trkpt lat="43.57108" lon="1.36771">
        <ele>159.60000610352</ele>
        <time>2015-01-27T11:50:27.000Z</time>
      </trkpt>
      <trkpt lat="43.57094" lon="1.3675">
        <ele>160</ele>
        <time>2015-01-27T11:50:34.000Z</time>
      </trkpt>
      <trkpt lat="43.57093" lon="1.36747">
        <ele>160</ele>
        <time>2015-01-27T11:50:35.000Z</time>
      </trkpt>
      <trkpt lat="43.5708" lon="1.36727">
        <ele>160</ele>
        <time>2015-01-27T11:50:41.000Z</time>
      </trkpt>
      <trkpt lat="43.57067" lon="1.36708">
        <ele>160</ele>
        <time>2015-01-27T11:50:47.000Z</time>
      </trkpt>
      <trkpt lat="43.57057" lon="1.36692">
        <ele>160</ele>
        <time>2015-01-27T11:50:52.000Z</time>
      </trkpt>
      <trkpt lat="43.57046" lon="1.36676">
        <ele>160</ele>
        <time>2015-01-27T11:50:57.000Z</time>
      </trkpt>
      <trkpt lat="43.57031" lon="1.3666">
        <ele>160</ele>
        <time>2015-01-27T11:51:03.000Z</time>
      </trkpt>
      <trkpt lat="43.57019" lon="1.36647">
        <ele>159.80000305176</ele>
        <time>2015-01-27T11:51:08.000Z</time>
      </trkpt>
      <trkpt lat="43.57004" lon="1.36631">
        <ele>160</ele>
        <time>2015-01-27T11:51:14.000Z</time>
      </trkpt>
      <trkpt lat="43.56992" lon="1.36617">
        <ele>160</ele>
        <time>2015-01-27T11:51:19.000Z</time>
      </trkpt>
      <trkpt lat="43.5698" lon="1.36605">
        <ele>160.19999694824</ele>
        <time>2015-01-27T11:51:24.000Z</time>
      </trkpt>
      <trkpt lat="43.56969" lon="1.36593">
        <ele>160.19999694824</ele>
        <time>2015-01-27T11:51:29.000Z</time>
      </trkpt>
      <trkpt lat="43.56955" lon="1.36576">
        <ele>160.19999694824</ele>
        <time>2015-01-27T11:51:35.000Z</time>
      </trkpt>
      <trkpt lat="43.56952" lon="1.36573">
        <ele>160.19999694824</ele>
        <time>2015-01-27T11:51:36.000Z</time>
      </trkpt>
      <trkpt lat="43.56938" lon="1.36557">
        <ele>160.19999694824</ele>
        <time>2015-01-27T11:51:42.000Z</time>
      </trkpt>
      <trkpt lat="43.56926" lon="1.36542">
        <ele>160</ele>
        <time>2015-01-27T11:51:47.000Z</time>
      </trkpt>
      <trkpt lat="43.56909" lon="1.36525">
        <ele>160</ele>
        <time>2015-01-27T11:51:54.000Z</time>
      </trkpt>
      <trkpt lat="43.56907" lon="1.36522">
        <ele>160</ele>
        <time>2015-01-27T11:51:55.000Z</time>
      </trkpt>
      <trkpt lat="43.56891" lon="1.36505">
        <ele>159.80000305176</ele>
        <time>2015-01-27T11:52:01.000Z</time>
      </trkpt>
      <trkpt lat="43.56874" lon="1.36488">
        <ele>159.80000305176</ele>
        <time>2015-01-27T11:52:07.000Z</time>
      </trkpt>
      <trkpt lat="43.56872" lon="1.36484">
        <ele>159.80000305176</ele>
        <time>2015-01-27T11:52:08.000Z</time>
      </trkpt>
      <trkpt lat="43.56862" lon="1.36465">
        <ele>159</ele>
        <time>2015-01-27T11:52:13.000Z</time>
      </trkpt>
      <trkpt lat="43.56852" lon="1.36443">
        <ele>158.19999694824</ele>
        <time>2015-01-27T11:52:18.000Z</time>
      </trkpt>
      <trkpt lat="43.56851" lon="1.36439">
        <ele>158</ele>
        <time>2015-01-27T11:52:19.000Z</time>
      </trkpt>
      <trkpt lat="43.56843" lon="1.36418">
        <ele>157</ele>
        <time>2015-01-27T11:52:24.000Z</time>
      </trkpt>
      <trkpt lat="43.5683" lon="1.36397">
        <ele>156.19999694824</ele>
        <time>2015-01-27T11:52:30.000Z</time>
      </trkpt>
      <trkpt lat="43.56828" lon="1.36394">
        <ele>156.39999389648</ele>
        <time>2015-01-27T11:52:31.000Z</time>
      </trkpt>
      <trkpt lat="43.56815" lon="1.36374">
        <ele>157.39999389648</ele>
        <time>2015-01-27T11:52:37.000Z</time>
      </trkpt>
      <trkpt lat="43.56803" lon="1.36353">
        <ele>158.39999389648</ele>
        <time>2015-01-27T11:52:43.000Z</time>
      </trkpt>
      <trkpt lat="43.5679" lon="1.36334">
        <ele>159.39999389648</ele>
        <time>2015-01-27T11:52:49.000Z</time>
      </trkpt>
      <trkpt lat="43.56788" lon="1.36331">
        <ele>159.60000610352</ele>
        <time>2015-01-27T11:52:50.000Z</time>
      </trkpt>
      <trkpt lat="43.56776" lon="1.36312">
        <ele>160.39999389648</ele>
        <time>2015-01-27T11:52:56.000Z</time>
      </trkpt>
      <trkpt lat="43.56775" lon="1.36308">
        <ele>160.39999389648</ele>
        <time>2015-01-27T11:52:57.000Z</time>
      </trkpt>
      <trkpt lat="43.56763" lon="1.36288">
        <ele>160.80000305176</ele>
        <time>2015-01-27T11:53:03.000Z</time>
      </trkpt>
      <trkpt lat="43.56754" lon="1.36273">
        <ele>160.60000610352</ele>
        <time>2015-01-27T11:53:08.000Z</time>
      </trkpt>
      <trkpt lat="43.56742" lon="1.36253">
        <ele>160.60000610352</ele>
        <time>2015-01-27T11:53:14.000Z</time>
      </trkpt>
      <trkpt lat="43.56734" lon="1.36234">
        <ele>160.39999389648</ele>
        <time>2015-01-27T11:53:19.000Z</time>
      </trkpt>
      <trkpt lat="43.56731" lon="1.36207">
        <ele>160.39999389648</ele>
        <time>2015-01-27T11:53:25.000Z</time>
      </trkpt>
      <trkpt lat="43.56732" lon="1.36188">
        <ele>160.60000610352</ele>
        <time>2015-01-27T11:53:29.000Z</time>
      </trkpt>
      <trkpt lat="43.56733" lon="1.36183">
        <ele>160.80000305176</ele>
        <time>2015-01-27T11:53:30.000Z</time>
      </trkpt>
      <trkpt lat="43.56737" lon="1.36176">
        <ele>161</ele>
        <time>2015-01-27T11:53:32.000Z</time>
      </trkpt>
      <trkpt lat="43.56745" lon="1.36159">
        <ele>161.39999389648</ele>
        <time>2015-01-27T11:53:37.000Z</time>
      </trkpt>
      <trkpt lat="43.56753" lon="1.36139">
        <ele>162</ele>
        <time>2015-01-27T11:53:43.000Z</time>
      </trkpt>
      <trkpt lat="43.56763" lon="1.36115">
        <ele>162</ele>
        <time>2015-01-27T11:53:50.000Z</time>
      </trkpt>
      <trkpt lat="43.56771" lon="1.36095">
        <ele>161.80000305176</ele>
        <time>2015-01-27T11:53:56.000Z</time>
      </trkpt>
      <trkpt lat="43.56779" lon="1.36074">
        <ele>161</ele>
        <time>2015-01-27T11:54:02.000Z</time>
      </trkpt>
      <trkpt lat="43.56783" lon="1.36058">
        <ele>160.60000610352</ele>
        <time>2015-01-27T11:54:06.000Z</time>
      </trkpt>
      <trkpt lat="43.56784" lon="1.36054">
        <ele>160.39999389648</ele>
        <time>2015-01-27T11:54:07.000Z</time>
      </trkpt>
      <trkpt lat="43.56791" lon="1.3603">
        <ele>159.19999694824</ele>
        <time>2015-01-27T11:54:13.000Z</time>
      </trkpt>
      <trkpt lat="43.56796" lon="1.36007">
        <ele>158.19999694824</ele>
        <time>2015-01-27T11:54:18.000Z</time>
      </trkpt>
      <trkpt lat="43.568" lon="1.35984">
        <ele>158</ele>
        <time>2015-01-27T11:54:23.000Z</time>
      </trkpt>
      <trkpt lat="43.56805" lon="1.35958">
        <ele>158</ele>
        <time>2015-01-27T11:54:29.000Z</time>
      </trkpt>
      <trkpt lat="43.56811" lon="1.3594">
        <ele>158</ele>
        <time>2015-01-27T11:54:34.000Z</time>
      </trkpt>
      <trkpt lat="43.56816" lon="1.35919">
        <ele>157.60000610352</ele>
        <time>2015-01-27T11:54:39.000Z</time>
      </trkpt>
      <trkpt lat="43.56822" lon="1.35895">
        <ele>157.19999694824</ele>
        <time>2015-01-27T11:54:45.000Z</time>
      </trkpt>
      <trkpt lat="43.56828" lon="1.35872">
        <ele>157.39999389648</ele>
        <time>2015-01-27T11:54:51.000Z</time>
      </trkpt>
      <trkpt lat="43.56832" lon="1.3585">
        <ele>157.19999694824</ele>
        <time>2015-01-27T11:54:56.000Z</time>
      </trkpt>
      <trkpt lat="43.56838" lon="1.35827">
        <ele>156.39999389648</ele>
        <time>2015-01-27T11:55:02.000Z</time>
      </trkpt>
      <trkpt lat="43.56843" lon="1.35807">
        <ele>155.80000305176</ele>
        <time>2015-01-27T11:55:07.000Z</time>
      </trkpt>
      <trkpt lat="43.56851" lon="1.35782">
        <ele>155</ele>
        <time>2015-01-27T11:55:14.000Z</time>
      </trkpt>
      <trkpt lat="43.56856" lon="1.35763">
        <ele>155</ele>
        <time>2015-01-27T11:55:19.000Z</time>
      </trkpt>
      <trkpt lat="43.56862" lon="1.35741">
        <ele>155</ele>
        <time>2015-01-27T11:55:25.000Z</time>
      </trkpt>
      <trkpt lat="43.56867" lon="1.35721">
        <ele>156</ele>
        <time>2015-01-27T11:55:30.000Z</time>
      </trkpt>
      <trkpt lat="43.56873" lon="1.35696">
        <ele>158.80000305176</ele>
        <time>2015-01-27T11:55:36.000Z</time>
      </trkpt>
      <trkpt lat="43.5688" lon="1.35673">
        <ele>161.19999694824</ele>
        <time>2015-01-27T11:55:42.000Z</time>
      </trkpt>
      <trkpt lat="43.56887" lon="1.35654">
        <ele>164</ele>
        <time>2015-01-27T11:55:47.000Z</time>
      </trkpt>
      <trkpt lat="43.56896" lon="1.35639">
        <ele>165</ele>
        <time>2015-01-27T11:55:52.000Z</time>
      </trkpt>
      <trkpt lat="43.56903" lon="1.35624">
        <ele>165.19999694824</ele>
        <time>2015-01-27T11:55:57.000Z</time>
      </trkpt>
      <trkpt lat="43.56907" lon="1.35609">
        <ele>165.80000305176</ele>
        <time>2015-01-27T11:56:01.000Z</time>
      </trkpt>
      <trkpt lat="43.56913" lon="1.35585">
        <ele>167</ele>
        <time>2015-01-27T11:56:07.000Z</time>
      </trkpt>
      <trkpt lat="43.5692" lon="1.35562">
        <ele>168.19999694824</ele>
        <time>2015-01-27T11:56:13.000Z</time>
      </trkpt>
      <trkpt lat="43.56923" lon="1.35541">
        <ele>168.39999389648</ele>
        <time>2015-01-27T11:56:18.000Z</time>
      </trkpt>
      <trkpt lat="43.5692" lon="1.35523">
        <ele>168</ele>
        <time>2015-01-27T11:56:23.000Z</time>
      </trkpt>
      <trkpt lat="43.56909" lon="1.35502">
        <ele>167.39999389648</ele>
        <time>2015-01-27T11:56:30.000Z</time>
      </trkpt>
      <trkpt lat="43.56895" lon="1.35481">
        <ele>166.60000610352</ele>
        <time>2015-01-27T11:56:36.000Z</time>
      </trkpt>
      <trkpt lat="43.56885" lon="1.35468">
        <ele>166.60000610352</ele>
        <time>2015-01-27T11:56:41.000Z</time>
      </trkpt>
      <trkpt lat="43.56876" lon="1.35457">
        <ele>166.80000305176</ele>
        <time>2015-01-27T11:56:45.000Z</time>
      </trkpt>
      <trkpt lat="43.56864" lon="1.35442">
        <ele>166.80000305176</ele>
        <time>2015-01-27T11:56:50.000Z</time>
      </trkpt>
      <trkpt lat="43.56851" lon="1.35425">
        <ele>167</ele>
        <time>2015-01-27T11:56:56.000Z</time>
      </trkpt>
      <trkpt lat="43.5684" lon="1.35409">
        <ele>167</ele>
        <time>2015-01-27T11:57:01.000Z</time>
      </trkpt>
      <trkpt lat="43.56824" lon="1.3539">
        <ele>167</ele>
        <time>2015-01-27T11:57:07.000Z</time>
      </trkpt>
      <trkpt lat="43.56811" lon="1.35373">
        <ele>166.60000610352</ele>
        <time>2015-01-27T11:57:12.000Z</time>
      </trkpt>
      <trkpt lat="43.56797" lon="1.35353">
        <ele>166.39999389648</ele>
        <time>2015-01-27T11:57:18.000Z</time>
      </trkpt>
      <trkpt lat="43.56785" lon="1.35337">
        <ele>166.19999694824</ele>
        <time>2015-01-27T11:57:23.000Z</time>
      </trkpt>
      <trkpt lat="43.56773" lon="1.35322">
        <ele>166</ele>
        <time>2015-01-27T11:57:28.000Z</time>
      </trkpt>
      <trkpt lat="43.56761" lon="1.35307">
        <ele>166</ele>
        <time>2015-01-27T11:57:33.000Z</time>
      </trkpt>
      <trkpt lat="43.56751" lon="1.35293">
        <ele>166.39999389648</ele>
        <time>2015-01-27T11:57:38.000Z</time>
      </trkpt>
      <trkpt lat="43.56738" lon="1.35274">
        <ele>167</ele>
        <time>2015-01-27T11:57:44.000Z</time>
      </trkpt>
      <trkpt lat="43.56724" lon="1.35254">
        <ele>167.39999389648</ele>
        <time>2015-01-27T11:57:50.000Z</time>
      </trkpt>
      <trkpt lat="43.56721" lon="1.35251">
        <ele>167.60000610352</ele>
        <time>2015-01-27T11:57:51.000Z</time>
      </trkpt>
      <trkpt lat="43.56709" lon="1.35235">
        <ele>167.80000305176</ele>
        <time>2015-01-27T11:57:56.000Z</time>
      </trkpt>
      <trkpt lat="43.56698" lon="1.35224">
        <ele>168</ele>
        <time>2015-01-27T11:58:01.000Z</time>
      </trkpt>
      <trkpt lat="43.56684" lon="1.35207">
        <ele>167.80000305176</ele>
        <time>2015-01-27T11:58:07.000Z</time>
      </trkpt>
      <trkpt lat="43.56672" lon="1.35187">
        <ele>168.19999694824</ele>
        <time>2015-01-27T11:58:13.000Z</time>
      </trkpt>
      <trkpt lat="43.56662" lon="1.35173">
        <ele>168.60000610352</ele>
        <time>2015-01-27T11:58:18.000Z</time>
      </trkpt>
      <trkpt lat="43.56648" lon="1.35155">
        <ele>168.80000305176</ele>
        <time>2015-01-27T11:58:24.000Z</time>
      </trkpt>
      <trkpt lat="43.56637" lon="1.35139">
        <ele>168.80000305176</ele>
        <time>2015-01-27T11:58:29.000Z</time>
      </trkpt>
      <trkpt lat="43.56624" lon="1.35121">
        <ele>168.60000610352</ele>
        <time>2015-01-27T11:58:35.000Z</time>
      </trkpt>
      <trkpt lat="43.56612" lon="1.35106">
        <ele>168.19999694824</ele>
        <time>2015-01-27T11:58:40.000Z</time>
      </trkpt>
      <trkpt lat="43.566" lon="1.35093">
        <ele>168</ele>
        <time>2015-01-27T11:58:45.000Z</time>
      </trkpt>
      <trkpt lat="43.56586" lon="1.35076">
        <ele>168.19999694824</ele>
        <time>2015-01-27T11:58:51.000Z</time>
      </trkpt>
      <trkpt lat="43.56576" lon="1.35062">
        <ele>168.19999694824</ele>
        <time>2015-01-27T11:58:56.000Z</time>
      </trkpt>
      <trkpt lat="43.56573" lon="1.35059">
        <ele>168.19999694824</ele>
        <time>2015-01-27T11:58:57.000Z</time>
      </trkpt>
      <trkpt lat="43.56562" lon="1.35044">
        <ele>167.80000305176</ele>
        <time>2015-01-27T11:59:03.000Z</time>
      </trkpt>
      <trkpt lat="43.56548" lon="1.35028">
        <ele>167.39999389648</ele>
        <time>2015-01-27T11:59:09.000Z</time>
      </trkpt>
      <trkpt lat="43.56534" lon="1.35011">
        <ele>166.80000305176</ele>
        <time>2015-01-27T11:59:15.000Z</time>
      </trkpt>
      <trkpt lat="43.56522" lon="1.34994">
        <ele>166.39999389648</ele>
        <time>2015-01-27T11:59:21.000Z</time>
      </trkpt>
      <trkpt lat="43.5651" lon="1.34977">
        <ele>166.19999694824</ele>
        <time>2015-01-27T11:59:27.000Z</time>
      </trkpt>
      <trkpt lat="43.56499" lon="1.34959">
        <ele>166.39999389648</ele>
        <time>2015-01-27T11:59:33.000Z</time>
      </trkpt>
      <trkpt lat="43.56492" lon="1.3494">
        <ele>166.19999694824</ele>
        <time>2015-01-27T11:59:38.000Z</time>
      </trkpt>
      <trkpt lat="43.5648" lon="1.34919">
        <ele>166</ele>
        <time>2015-01-27T11:59:44.000Z</time>
      </trkpt>
      <trkpt lat="43.56478" lon="1.34915">
        <ele>166</ele>
        <time>2015-01-27T11:59:45.000Z</time>
      </trkpt>
      <trkpt lat="43.56467" lon="1.34895">
        <ele>166</ele>
        <time>2015-01-27T11:59:51.000Z</time>
      </trkpt>
      <trkpt lat="43.56465" lon="1.34892">
        <ele>166</ele>
        <time>2015-01-27T11:59:52.000Z</time>
      </trkpt>
      <trkpt lat="43.56455" lon="1.34877">
        <ele>165.80000305176</ele>
        <time>2015-01-27T11:59:57.000Z</time>
      </trkpt>
      <trkpt lat="43.56443" lon="1.34856">
        <ele>165.60000610352</ele>
        <time>2015-01-27T12:00:03.000Z</time>
      </trkpt>
      <trkpt lat="43.56441" lon="1.34854">
        <ele>165.60000610352</ele>
        <time>2015-01-27T12:00:04.000Z</time>
      </trkpt>
      <trkpt lat="43.56432" lon="1.34836">
        <ele>165.19999694824</ele>
        <time>2015-01-27T12:00:09.000Z</time>
      </trkpt>
      <trkpt lat="43.5643" lon="1.34819">
        <ele>164.39999389648</ele>
        <time>2015-01-27T12:00:14.000Z</time>
      </trkpt>
      <trkpt lat="43.56427" lon="1.348">
        <ele>163.80000305176</ele>
        <time>2015-01-27T12:00:19.000Z</time>
      </trkpt>
      <trkpt lat="43.56425" lon="1.34775">
        <ele>163</ele>
        <time>2015-01-27T12:00:25.000Z</time>
      </trkpt>
      <trkpt lat="43.56424" lon="1.34755">
        <ele>162.19999694824</ele>
        <time>2015-01-27T12:00:30.000Z</time>
      </trkpt>
      <trkpt lat="43.56428" lon="1.34735">
        <ele>161.39999389648</ele>
        <time>2015-01-27T12:00:35.000Z</time>
      </trkpt>
      <trkpt lat="43.56439" lon="1.34716">
        <ele>161.19999694824</ele>
        <time>2015-01-27T12:00:41.000Z</time>
      </trkpt>
      <trkpt lat="43.56449" lon="1.34699">
        <ele>161.80000305176</ele>
        <time>2015-01-27T12:00:46.000Z</time>
      </trkpt>
      <trkpt lat="43.5646" lon="1.34678">
        <ele>162.19999694824</ele>
        <time>2015-01-27T12:00:52.000Z</time>
      </trkpt>
      <trkpt lat="43.56468" lon="1.34668">
        <ele>162.19999694824</ele>
        <time>2015-01-27T12:00:56.000Z</time>
      </trkpt>
      <trkpt lat="43.56483" lon="1.3465">
        <ele>162</ele>
        <time>2015-01-27T12:01:02.000Z</time>
      </trkpt>
      <trkpt lat="43.56501" lon="1.34637">
        <ele>162.19999694824</ele>
        <time>2015-01-27T12:01:08.000Z</time>
      </trkpt>
      <trkpt lat="43.5652" lon="1.34632">
        <ele>162</ele>
        <time>2015-01-27T12:01:14.000Z</time>
      </trkpt>
      <trkpt lat="43.56539" lon="1.34636">
        <ele>162.39999389648</ele>
        <time>2015-01-27T12:01:19.000Z</time>
      </trkpt>
      <trkpt lat="43.56552" lon="1.34641">
        <ele>162.80000305176</ele>
        <time>2015-01-27T12:01:24.000Z</time>
      </trkpt>
      <trkpt lat="43.5657" lon="1.34646">
        <ele>163.19999694824</ele>
        <time>2015-01-27T12:01:30.000Z</time>
      </trkpt>
      <trkpt lat="43.56582" lon="1.34649">
        <ele>163.39999389648</ele>
        <time>2015-01-27T12:01:34.000Z</time>
      </trkpt>
      <trkpt lat="43.56597" lon="1.34645">
        <ele>163.80000305176</ele>
        <time>2015-01-27T12:01:39.000Z</time>
      </trkpt>
      <trkpt lat="43.56609" lon="1.34628">
        <ele>162.80000305176</ele>
        <time>2015-01-27T12:01:45.000Z</time>
      </trkpt>
      <trkpt lat="43.56619" lon="1.34603">
        <ele>161.39999389648</ele>
        <time>2015-01-27T12:01:52.000Z</time>
      </trkpt>
      <trkpt lat="43.56624" lon="1.3458">
        <ele>160.60000610352</ele>
        <time>2015-01-27T12:01:58.000Z</time>
      </trkpt>
      <trkpt lat="43.5663" lon="1.3456">
        <ele>160.19999694824</ele>
        <time>2015-01-27T12:02:03.000Z</time>
      </trkpt>
      <trkpt lat="43.5664" lon="1.34539">
        <ele>159.39999389648</ele>
        <time>2015-01-27T12:02:09.000Z</time>
      </trkpt>
      <trkpt lat="43.56651" lon="1.3452">
        <ele>158.80000305176</ele>
        <time>2015-01-27T12:02:15.000Z</time>
      </trkpt>
      <trkpt lat="43.56661" lon="1.34501">
        <ele>159</ele>
        <time>2015-01-27T12:02:21.000Z</time>
      </trkpt>
      <trkpt lat="43.5667" lon="1.34485">
        <ele>159.19999694824</ele>
        <time>2015-01-27T12:02:26.000Z</time>
      </trkpt>
      <trkpt lat="43.5668" lon="1.34469">
        <ele>159.19999694824</ele>
        <time>2015-01-27T12:02:31.000Z</time>
      </trkpt>
      <trkpt lat="43.56691" lon="1.34449">
        <ele>159.60000610352</ele>
        <time>2015-01-27T12:02:37.000Z</time>
      </trkpt>
      <trkpt lat="43.56693" lon="1.34446">
        <ele>159.60000610352</ele>
        <time>2015-01-27T12:02:38.000Z</time>
      </trkpt>
      <trkpt lat="43.56704" lon="1.34426">
        <ele>159.80000305176</ele>
        <time>2015-01-27T12:02:44.000Z</time>
      </trkpt>
      <trkpt lat="43.56717" lon="1.34407">
        <ele>159.39999389648</ele>
        <time>2015-01-27T12:02:50.000Z</time>
      </trkpt>
      <trkpt lat="43.56729" lon="1.34395">
        <ele>158.80000305176</ele>
        <time>2015-01-27T12:02:55.000Z</time>
      </trkpt>
      <trkpt lat="43.56742" lon="1.34384">
        <ele>158.39999389648</ele>
        <time>2015-01-27T12:03:00.000Z</time>
      </trkpt>
      <trkpt lat="43.56759" lon="1.34374">
        <ele>158.39999389648</ele>
        <time>2015-01-27T12:03:06.000Z</time>
      </trkpt>
      <trkpt lat="43.56761" lon="1.34372">
        <ele>158.60000610352</ele>
        <time>2015-01-27T12:03:07.000Z</time>
      </trkpt>
      <trkpt lat="43.56773" lon="1.3437">
        <ele>158.60000610352</ele>
        <time>2015-01-27T12:03:11.000Z</time>
      </trkpt>
      <trkpt lat="43.5679" lon="1.34375">
        <ele>158.39999389648</ele>
        <time>2015-01-27T12:03:16.000Z</time>
      </trkpt>
      <trkpt lat="43.56809" lon="1.34384">
        <ele>157.80000305176</ele>
        <time>2015-01-27T12:03:22.000Z</time>
      </trkpt>
      <trkpt lat="43.56813" lon="1.34386">
        <ele>157.60000610352</ele>
        <time>2015-01-27T12:03:23.000Z</time>
      </trkpt>
      <trkpt lat="43.56831" lon="1.34396">
        <ele>157</ele>
        <time>2015-01-27T12:03:29.000Z</time>
      </trkpt>
      <trkpt lat="43.56844" lon="1.3441">
        <ele>157</ele>
        <time>2015-01-27T12:03:34.000Z</time>
      </trkpt>
      <trkpt lat="43.56856" lon="1.34424">
        <ele>157.19999694824</ele>
        <time>2015-01-27T12:03:39.000Z</time>
      </trkpt>
      <trkpt lat="43.56865" lon="1.34442">
        <ele>157.60000610352</ele>
        <time>2015-01-27T12:03:44.000Z</time>
      </trkpt>
      <trkpt lat="43.56872" lon="1.34464">
        <ele>158</ele>
        <time>2015-01-27T12:03:49.000Z</time>
      </trkpt>
      <trkpt lat="43.56878" lon="1.34491">
        <ele>157.80000305176</ele>
        <time>2015-01-27T12:03:55.000Z</time>
      </trkpt>
      <trkpt lat="43.56879" lon="1.34495">
        <ele>157.60000610352</ele>
        <time>2015-01-27T12:03:56.000Z</time>
      </trkpt>
      <trkpt lat="43.56887" lon="1.34521">
        <ele>157</ele>
        <time>2015-01-27T12:04:02.000Z</time>
      </trkpt>
      <trkpt lat="43.56889" lon="1.34526">
        <ele>157</ele>
        <time>2015-01-27T12:04:03.000Z</time>
      </trkpt>
      <trkpt lat="43.569" lon="1.34549">
        <ele>157</ele>
        <time>2015-01-27T12:04:09.000Z</time>
      </trkpt>
      <trkpt lat="43.56912" lon="1.34561">
        <ele>157</ele>
        <time>2015-01-27T12:04:14.000Z</time>
      </trkpt>
      <trkpt lat="43.56926" lon="1.34567">
        <ele>157</ele>
        <time>2015-01-27T12:04:19.000Z</time>
      </trkpt>
      <trkpt lat="43.56944" lon="1.34576">
        <ele>157</ele>
        <time>2015-01-27T12:04:25.000Z</time>
      </trkpt>
      <trkpt lat="43.56958" lon="1.3458">
        <ele>157</ele>
        <time>2015-01-27T12:04:30.000Z</time>
      </trkpt>
      <trkpt lat="43.56971" lon="1.34582">
        <ele>157.19999694824</ele>
        <time>2015-01-27T12:04:34.000Z</time>
      </trkpt>
      <trkpt lat="43.56986" lon="1.34584">
        <ele>157.39999389648</ele>
        <time>2015-01-27T12:04:39.000Z</time>
      </trkpt>
      <trkpt lat="43.57005" lon="1.34591">
        <ele>157.60000610352</ele>
        <time>2015-01-27T12:04:45.000Z</time>
      </trkpt>
      <trkpt lat="43.57017" lon="1.34606">
        <ele>157.39999389648</ele>
        <time>2015-01-27T12:04:50.000Z</time>
      </trkpt>
      <trkpt lat="43.57026" lon="1.34621">
        <ele>157.80000305176</ele>
        <time>2015-01-27T12:04:55.000Z</time>
      </trkpt>
      <trkpt lat="43.57035" lon="1.34638">
        <ele>158</ele>
        <time>2015-01-27T12:05:00.000Z</time>
      </trkpt>
      <trkpt lat="43.57045" lon="1.34653">
        <ele>158.19999694824</ele>
        <time>2015-01-27T12:05:05.000Z</time>
      </trkpt>
      <trkpt lat="43.57056" lon="1.34673">
        <ele>158.80000305176</ele>
        <time>2015-01-27T12:05:11.000Z</time>
      </trkpt>
      <trkpt lat="43.57058" lon="1.34676">
        <ele>159</ele>
        <time>2015-01-27T12:05:12.000Z</time>
      </trkpt>
      <trkpt lat="43.57062" lon="1.34693">
        <ele>159</ele>
        <time>2015-01-27T12:05:16.000Z</time>
      </trkpt>
      <trkpt lat="43.57062" lon="1.34719">
        <ele>159.19999694824</ele>
        <time>2015-01-27T12:05:22.000Z</time>
      </trkpt>
      <trkpt lat="43.57062" lon="1.34746">
        <ele>159.80000305176</ele>
        <time>2015-01-27T12:05:28.000Z</time>
      </trkpt>
      <trkpt lat="43.57059" lon="1.34774">
        <ele>161</ele>
        <time>2015-01-27T12:05:35.000Z</time>
      </trkpt>
      <trkpt lat="43.57059" lon="1.34794">
        <ele>161</ele>
        <time>2015-01-27T12:05:40.000Z</time>
      </trkpt>
      <trkpt lat="43.57055" lon="1.3482">
        <ele>160.60000610352</ele>
        <time>2015-01-27T12:05:46.000Z</time>
      </trkpt>
      <trkpt lat="43.57054" lon="1.34825">
        <ele>160.60000610352</ele>
        <time>2015-01-27T12:05:47.000Z</time>
      </trkpt>
      <trkpt lat="43.57048" lon="1.34849">
        <ele>160.19999694824</ele>
        <time>2015-01-27T12:05:53.000Z</time>
      </trkpt>
      <trkpt lat="43.57047" lon="1.34853">
        <ele>160.19999694824</ele>
        <time>2015-01-27T12:05:54.000Z</time>
      </trkpt>
      <trkpt lat="43.57046" lon="1.3488">
        <ele>160</ele>
        <time>2015-01-27T12:06:00.000Z</time>
      </trkpt>
      <trkpt lat="43.5705" lon="1.34905">
        <ele>159.60000610352</ele>
        <time>2015-01-27T12:06:06.000Z</time>
      </trkpt>
      <trkpt lat="43.57059" lon="1.34926">
        <ele>158.39999389648</ele>
        <time>2015-01-27T12:06:12.000Z</time>
      </trkpt>
      <trkpt lat="43.57071" lon="1.34939">
        <ele>158.39999389648</ele>
        <time>2015-01-27T12:06:17.000Z</time>
      </trkpt>
      <trkpt lat="43.57085" lon="1.34951">
        <ele>158.39999389648</ele>
        <time>2015-01-27T12:06:22.000Z</time>
      </trkpt>
      <trkpt lat="43.57101" lon="1.34962">
        <ele>159</ele>
        <time>2015-01-27T12:06:28.000Z</time>
      </trkpt>
      <trkpt lat="43.57117" lon="1.3497">
        <ele>158.19999694824</ele>
        <time>2015-01-27T12:06:33.000Z</time>
      </trkpt>
      <trkpt lat="43.57136" lon="1.34976">
        <ele>157.60000610352</ele>
        <time>2015-01-27T12:06:39.000Z</time>
      </trkpt>
      <trkpt lat="43.57154" lon="1.34982">
        <ele>157</ele>
        <time>2015-01-27T12:06:45.000Z</time>
      </trkpt>
      <trkpt lat="43.57172" lon="1.34987">
        <ele>157</ele>
        <time>2015-01-27T12:06:51.000Z</time>
      </trkpt>
      <trkpt lat="43.57189" lon="1.34995">
        <ele>157.19999694824</ele>
        <time>2015-01-27T12:06:57.000Z</time>
      </trkpt>
      <trkpt lat="43.57204" lon="1.35003">
        <ele>157.39999389648</ele>
        <time>2015-01-27T12:07:02.000Z</time>
      </trkpt>
      <trkpt lat="43.57222" lon="1.35015">
        <ele>158</ele>
        <time>2015-01-27T12:07:08.000Z</time>
      </trkpt>
      <trkpt lat="43.57235" lon="1.35028">
        <ele>158.19999694824</ele>
        <time>2015-01-27T12:07:13.000Z</time>
      </trkpt>
      <trkpt lat="43.57249" lon="1.35046">
        <ele>158.60000610352</ele>
        <time>2015-01-27T12:07:19.000Z</time>
      </trkpt>
      <trkpt lat="43.57251" lon="1.3505">
        <ele>158.60000610352</ele>
        <time>2015-01-27T12:07:20.000Z</time>
      </trkpt>
      <trkpt lat="43.57261" lon="1.35068">
        <ele>158.80000305176</ele>
        <time>2015-01-27T12:07:25.000Z</time>
      </trkpt>
      <trkpt lat="43.57271" lon="1.35092">
        <ele>158.39999389648</ele>
        <time>2015-01-27T12:07:31.000Z</time>
      </trkpt>
      <trkpt lat="43.57273" lon="1.35095">
        <ele>158.19999694824</ele>
        <time>2015-01-27T12:07:32.000Z</time>
      </trkpt>
      <trkpt lat="43.57283" lon="1.35119">
        <ele>157.60000610352</ele>
        <time>2015-01-27T12:07:38.000Z</time>
      </trkpt>
      <trkpt lat="43.57295" lon="1.35141">
        <ele>157.19999694824</ele>
        <time>2015-01-27T12:07:44.000Z</time>
      </trkpt>
      <trkpt lat="43.57309" lon="1.35158">
        <ele>157</ele>
        <time>2015-01-27T12:07:50.000Z</time>
      </trkpt>
      <trkpt lat="43.57325" lon="1.3516">
        <ele>157</ele>
        <time>2015-01-27T12:07:55.000Z</time>
      </trkpt>
      <trkpt lat="43.57343" lon="1.35156">
        <ele>157</ele>
        <time>2015-01-27T12:08:01.000Z</time>
      </trkpt>
      <trkpt lat="43.57359" lon="1.35149">
        <ele>157</ele>
        <time>2015-01-27T12:08:07.000Z</time>
      </trkpt>
      <trkpt lat="43.57376" lon="1.35145">
        <ele>157.19999694824</ele>
        <time>2015-01-27T12:08:13.000Z</time>
      </trkpt>
      <trkpt lat="43.57395" lon="1.35143">
        <ele>157.19999694824</ele>
        <time>2015-01-27T12:08:19.000Z</time>
      </trkpt>
      <trkpt lat="43.57413" lon="1.35141">
        <ele>157.39999389648</ele>
        <time>2015-01-27T12:08:25.000Z</time>
      </trkpt>
      <trkpt lat="43.57416" lon="1.35142">
        <ele>157.39999389648</ele>
        <time>2015-01-27T12:08:26.000Z</time>
      </trkpt>
      <trkpt lat="43.57437" lon="1.35143">
        <ele>157.19999694824</ele>
        <time>2015-01-27T12:08:32.000Z</time>
      </trkpt>
      <trkpt lat="43.57442" lon="1.35145">
        <ele>157.60000610352</ele>
        <time>2015-01-27T12:08:34.000Z</time>
      </trkpt>
      <trkpt lat="43.57453" lon="1.35148">
        <ele>158</ele>
        <time>2015-01-27T12:08:38.000Z</time>
      </trkpt>
      <trkpt lat="43.57467" lon="1.35153">
        <ele>158.60000610352</ele>
        <time>2015-01-27T12:08:43.000Z</time>
      </trkpt>
      <trkpt lat="43.5748" lon="1.35162">
        <ele>158.80000305176</ele>
        <time>2015-01-27T12:08:48.000Z</time>
      </trkpt>
      <trkpt lat="43.57497" lon="1.35175">
        <ele>159.19999694824</ele>
        <time>2015-01-27T12:08:55.000Z</time>
      </trkpt>
      <trkpt lat="43.57513" lon="1.35192">
        <ele>159</ele>
        <time>2015-01-27T12:09:02.000Z</time>
      </trkpt>
      <trkpt lat="43.57517" lon="1.35196">
        <ele>159</ele>
        <time>2015-01-27T12:09:04.000Z</time>
      </trkpt>
      <trkpt lat="43.57527" lon="1.3521">
        <ele>158.19999694824</ele>
        <time>2015-01-27T12:09:09.000Z</time>
      </trkpt>
      <trkpt lat="43.57537" lon="1.35224">
        <ele>157.39999389648</ele>
        <time>2015-01-27T12:09:14.000Z</time>
      </trkpt>
      <trkpt lat="43.57549" lon="1.35244">
        <ele>157</ele>
        <time>2015-01-27T12:09:20.000Z</time>
      </trkpt>
      <trkpt lat="43.57551" lon="1.35248">
        <ele>157</ele>
        <time>2015-01-27T12:09:21.000Z</time>
      </trkpt>
      <trkpt lat="43.57557" lon="1.35273">
        <ele>157</ele>
        <time>2015-01-27T12:09:27.000Z</time>
      </trkpt>
      <trkpt lat="43.57558" lon="1.35277">
        <ele>157</ele>
        <time>2015-01-27T12:09:28.000Z</time>
      </trkpt>
      <trkpt lat="43.5756" lon="1.35303">
        <ele>157</ele>
        <time>2015-01-27T12:09:34.000Z</time>
      </trkpt>
      <trkpt lat="43.57562" lon="1.35328">
        <ele>158.80000305176</ele>
        <time>2015-01-27T12:09:40.000Z</time>
      </trkpt>
      <trkpt lat="43.57563" lon="1.3535">
        <ele>161.39999389648</ele>
        <time>2015-01-27T12:09:45.000Z</time>
      </trkpt>
      <trkpt lat="43.57565" lon="1.35377">
        <ele>162.60000610352</ele>
        <time>2015-01-27T12:09:51.000Z</time>
      </trkpt>
      <trkpt lat="43.57565" lon="1.35382">
        <ele>162.60000610352</ele>
        <time>2015-01-27T12:09:52.000Z</time>
      </trkpt>
      <trkpt lat="43.57565" lon="1.35408">
        <ele>162.19999694824</ele>
        <time>2015-01-27T12:09:58.000Z</time>
      </trkpt>
      <trkpt lat="43.57564" lon="1.35433">
        <ele>160.80000305176</ele>
        <time>2015-01-27T12:10:04.000Z</time>
      </trkpt>
      <trkpt lat="43.57564" lon="1.35438">
        <ele>160.60000610352</ele>
        <time>2015-01-27T12:10:05.000Z</time>
      </trkpt>
      <trkpt lat="43.57565" lon="1.35458">
        <ele>160.39999389648</ele>
        <time>2015-01-27T12:10:10.000Z</time>
      </trkpt>
      <trkpt lat="43.57565" lon="1.35484">
        <ele>160.39999389648</ele>
        <time>2015-01-27T12:10:16.000Z</time>
      </trkpt>
      <trkpt lat="43.57566" lon="1.35488">
        <ele>160.19999694824</ele>
        <time>2015-01-27T12:10:17.000Z</time>
      </trkpt>
      <trkpt lat="43.57566" lon="1.3551">
        <ele>159.39999389648</ele>
        <time>2015-01-27T12:10:22.000Z</time>
      </trkpt>
      <trkpt lat="43.57566" lon="1.35537">
        <ele>158.80000305176</ele>
        <time>2015-01-27T12:10:28.000Z</time>
      </trkpt>
      <trkpt lat="43.57565" lon="1.35563">
        <ele>158.60000610352</ele>
        <time>2015-01-27T12:10:34.000Z</time>
      </trkpt>
      <trkpt lat="43.57565" lon="1.35567">
        <ele>158.80000305176</ele>
        <time>2015-01-27T12:10:35.000Z</time>
      </trkpt>
      <trkpt lat="43.57566" lon="1.35589">
        <ele>159</ele>
        <time>2015-01-27T12:10:40.000Z</time>
      </trkpt>
      <trkpt lat="43.57567" lon="1.35616">
        <ele>159.39999389648</ele>
        <time>2015-01-27T12:10:46.000Z</time>
      </trkpt>
      <trkpt lat="43.57568" lon="1.35638">
        <ele>159.39999389648</ele>
        <time>2015-01-27T12:10:51.000Z</time>
      </trkpt>
      <trkpt lat="43.57569" lon="1.35665">
        <ele>158.80000305176</ele>
        <time>2015-01-27T12:10:57.000Z</time>
      </trkpt>
      <trkpt lat="43.57565" lon="1.35692">
        <ele>157.60000610352</ele>
        <time>2015-01-27T12:11:03.000Z</time>
      </trkpt>
      <trkpt lat="43.57563" lon="1.35696">
        <ele>157.60000610352</ele>
        <time>2015-01-27T12:11:04.000Z</time>
      </trkpt>
      <trkpt lat="43.57557" lon="1.35715">
        <ele>157.39999389648</ele>
        <time>2015-01-27T12:11:09.000Z</time>
      </trkpt>
      <trkpt lat="43.57556" lon="1.35735">
        <ele>157.39999389648</ele>
        <time>2015-01-27T12:11:14.000Z</time>
      </trkpt>
      <trkpt lat="43.57556" lon="1.35754">
        <ele>157.39999389648</ele>
        <time>2015-01-27T12:11:19.000Z</time>
      </trkpt>
      <trkpt lat="43.57561" lon="1.35759">
        <ele>157.60000610352</ele>
        <time>2015-01-27T12:11:21.000Z</time>
      </trkpt>
      <trkpt lat="43.57566" lon="1.35763">
        <ele>157.60000610352</ele>
        <time>2015-01-27T12:11:23.000Z</time>
      </trkpt>
      <trkpt lat="43.57583" lon="1.35774">
        <ele>157.80000305176</ele>
        <time>2015-01-27T12:11:29.000Z</time>
      </trkpt>
      <trkpt lat="43.57585" lon="1.35776">
        <ele>157.80000305176</ele>
        <time>2015-01-27T12:11:30.000Z</time>
      </trkpt>
      <trkpt lat="43.57601" lon="1.35788">
        <ele>158</ele>
        <time>2015-01-27T12:11:36.000Z</time>
      </trkpt>
      <trkpt lat="43.57619" lon="1.35802">
        <ele>158</ele>
        <time>2015-01-27T12:11:43.000Z</time>
      </trkpt>
      <trkpt lat="43.57633" lon="1.35812">
        <ele>158</ele>
        <time>2015-01-27T12:11:48.000Z</time>
      </trkpt>
      <trkpt lat="43.57647" lon="1.35825">
        <ele>157.80000305176</ele>
        <time>2015-01-27T12:11:54.000Z</time>
      </trkpt>
      <trkpt lat="43.57662" lon="1.35836">
        <ele>157.80000305176</ele>
        <time>2015-01-27T12:12:00.000Z</time>
      </trkpt>
      <trkpt lat="43.57677" lon="1.35848">
        <ele>157.60000610352</ele>
        <time>2015-01-27T12:12:06.000Z</time>
      </trkpt>
      <trkpt lat="43.57692" lon="1.35861">
        <ele>157.60000610352</ele>
        <time>2015-01-27T12:12:12.000Z</time>
      </trkpt>
      <trkpt lat="43.57704" lon="1.35871">
        <ele>157.60000610352</ele>
        <time>2015-01-27T12:12:17.000Z</time>
      </trkpt>
      <trkpt lat="43.57722" lon="1.35883">
        <ele>157.60000610352</ele>
        <time>2015-01-27T12:12:24.000Z</time>
      </trkpt>
      <trkpt lat="43.57724" lon="1.35886">
        <ele>157.60000610352</ele>
        <time>2015-01-27T12:12:25.000Z</time>
      </trkpt>
      <trkpt lat="43.57737" lon="1.35895">
        <ele>157.60000610352</ele>
        <time>2015-01-27T12:12:30.000Z</time>
      </trkpt>
      <trkpt lat="43.57751" lon="1.35905">
        <ele>157.80000305176</ele>
        <time>2015-01-27T12:12:35.000Z</time>
      </trkpt>
      <trkpt lat="43.57766" lon="1.35917">
        <ele>157.80000305176</ele>
        <time>2015-01-27T12:12:41.000Z</time>
      </trkpt>
      <trkpt lat="43.5778" lon="1.35927">
        <ele>158</ele>
        <time>2015-01-27T12:12:46.000Z</time>
      </trkpt>
      <trkpt lat="43.57793" lon="1.35937">
        <ele>158.19999694824</ele>
        <time>2015-01-27T12:12:51.000Z</time>
      </trkpt>
      <trkpt lat="43.57806" lon="1.35946">
        <ele>158.39999389648</ele>
        <time>2015-01-27T12:12:56.000Z</time>
      </trkpt>
      <trkpt lat="43.5782" lon="1.35955">
        <ele>158.60000610352</ele>
        <time>2015-01-27T12:13:01.000Z</time>
      </trkpt>
      <trkpt lat="43.57829" lon="1.35964">
        <ele>158.60000610352</ele>
        <time>2015-01-27T12:13:05.000Z</time>
      </trkpt>
      <trkpt lat="43.57842" lon="1.35972">
        <ele>158.80000305176</ele>
        <time>2015-01-27T12:13:10.000Z</time>
      </trkpt>
      <trkpt lat="43.57857" lon="1.35971">
        <ele>158.80000305176</ele>
        <time>2015-01-27T12:13:15.000Z</time>
      </trkpt>
      <trkpt lat="43.57871" lon="1.35958">
        <ele>158.39999389648</ele>
        <time>2015-01-27T12:13:20.000Z</time>
      </trkpt>
      <trkpt lat="43.57881" lon="1.35941">
        <ele>158</ele>
        <time>2015-01-27T12:13:25.000Z</time>
      </trkpt>
      <trkpt lat="43.57892" lon="1.35925">
        <ele>158.19999694824</ele>
        <time>2015-01-27T12:13:30.000Z</time>
      </trkpt>
      <trkpt lat="43.57905" lon="1.35908">
        <ele>159</ele>
        <time>2015-01-27T12:13:36.000Z</time>
      </trkpt>
      <trkpt lat="43.57917" lon="1.35901">
        <ele>159.80000305176</ele>
        <time>2015-01-27T12:13:41.000Z</time>
      </trkpt>
      <trkpt lat="43.5792" lon="1.35914">
        <ele>160</ele>
        <time>2015-01-27T12:13:44.000Z</time>
      </trkpt>
      <trkpt lat="43.57927" lon="1.3594">
        <ele>160</ele>
        <time>2015-01-27T12:13:50.000Z</time>
      </trkpt>
      <trkpt lat="43.57934" lon="1.35965">
        <ele>160.19999694824</ele>
        <time>2015-01-27T12:13:56.000Z</time>
      </trkpt>
      <trkpt lat="43.57935" lon="1.35969">
        <ele>160.19999694824</ele>
        <time>2015-01-27T12:13:57.000Z</time>
      </trkpt>
      <trkpt lat="43.57942" lon="1.35993">
        <ele>159.60000610352</ele>
        <time>2015-01-27T12:14:03.000Z</time>
      </trkpt>
      <trkpt lat="43.57951" lon="1.36016">
        <ele>159</ele>
        <time>2015-01-27T12:14:09.000Z</time>
      </trkpt>
      <trkpt lat="43.5796" lon="1.36039">
        <ele>158.39999389648</ele>
        <time>2015-01-27T12:14:15.000Z</time>
      </trkpt>
      <trkpt lat="43.57967" lon="1.36062">
        <ele>157.80000305176</ele>
        <time>2015-01-27T12:14:21.000Z</time>
      </trkpt>
      <trkpt lat="43.57968" lon="1.36066">
        <ele>157.80000305176</ele>
        <time>2015-01-27T12:14:22.000Z</time>
      </trkpt>
      <trkpt lat="43.57974" lon="1.36082">
        <ele>157.80000305176</ele>
        <time>2015-01-27T12:14:26.000Z</time>
      </trkpt>
      <trkpt lat="43.57982" lon="1.36102">
        <ele>157.80000305176</ele>
        <time>2015-01-27T12:14:31.000Z</time>
      </trkpt>
      <trkpt lat="43.57988" lon="1.36121">
        <ele>157.60000610352</ele>
        <time>2015-01-27T12:14:36.000Z</time>
      </trkpt>
      <trkpt lat="43.57998" lon="1.36144">
        <ele>157</ele>
        <time>2015-01-27T12:14:42.000Z</time>
      </trkpt>
      <trkpt lat="43.58004" lon="1.36163">
        <ele>156.80000305176</ele>
        <time>2015-01-27T12:14:47.000Z</time>
      </trkpt>
      <trkpt lat="43.58013" lon="1.36184">
        <ele>156.60000610352</ele>
        <time>2015-01-27T12:14:53.000Z</time>
      </trkpt>
      <trkpt lat="43.58018" lon="1.36203">
        <ele>156.39999389648</ele>
        <time>2015-01-27T12:14:58.000Z</time>
      </trkpt>
      <trkpt lat="43.58018" lon="1.36208">
        <ele>156.19999694824</ele>
        <time>2015-01-27T12:14:59.000Z</time>
      </trkpt>
      <trkpt lat="43.58014" lon="1.3622">
        <ele>156.19999694824</ele>
        <time>2015-01-27T12:15:02.000Z</time>
      </trkpt>
      <trkpt lat="43.58013" lon="1.36236">
        <ele>156.19999694824</ele>
        <time>2015-01-27T12:15:06.000Z</time>
      </trkpt>
      <trkpt lat="43.58014" lon="1.3624">
        <ele>156.19999694824</ele>
        <time>2015-01-27T12:15:07.000Z</time>
      </trkpt>
      <trkpt lat="43.5802" lon="1.36249">
        <ele>156.19999694824</ele>
        <time>2015-01-27T12:15:10.000Z</time>
      </trkpt>
      <trkpt lat="43.58024" lon="1.36254">
        <ele>156.39999389648</ele>
        <time>2015-01-27T12:15:12.000Z</time>
      </trkpt>
      <trkpt lat="43.58038" lon="1.36272">
        <ele>156.80000305176</ele>
        <time>2015-01-27T12:15:19.000Z</time>
      </trkpt>
      <trkpt lat="43.58042" lon="1.36297">
        <ele>157</ele>
        <time>2015-01-27T12:15:25.000Z</time>
      </trkpt>
      <trkpt lat="43.58045" lon="1.36318">
        <ele>157.39999389648</ele>
        <time>2015-01-27T12:15:30.000Z</time>
      </trkpt>
      <trkpt lat="43.5805" lon="1.36345">
        <ele>157.80000305176</ele>
        <time>2015-01-27T12:15:37.000Z</time>
      </trkpt>
      <trkpt lat="43.58056" lon="1.36374">
        <ele>159</ele>
        <time>2015-01-27T12:15:44.000Z</time>
      </trkpt>
      <trkpt lat="43.58062" lon="1.36396">
        <ele>159.80000305176</ele>
        <time>2015-01-27T12:15:50.000Z</time>
      </trkpt>
      <trkpt lat="43.58068" lon="1.3642">
        <ele>159</ele>
        <time>2015-01-27T12:15:56.000Z</time>
      </trkpt>
      <trkpt lat="43.58074" lon="1.36443">
        <ele>158</ele>
        <time>2015-01-27T12:16:02.000Z</time>
      </trkpt>
      <trkpt lat="43.5808" lon="1.36466">
        <ele>157.19999694824</ele>
        <time>2015-01-27T12:16:08.000Z</time>
      </trkpt>
      <trkpt lat="43.58081" lon="1.3647">
        <ele>157</ele>
        <time>2015-01-27T12:16:09.000Z</time>
      </trkpt>
      <trkpt lat="43.58087" lon="1.36491">
        <ele>156.80000305176</ele>
        <time>2015-01-27T12:16:14.000Z</time>
      </trkpt>
      <trkpt lat="43.58092" lon="1.36511">
        <ele>157</ele>
        <time>2015-01-27T12:16:19.000Z</time>
      </trkpt>
      <trkpt lat="43.58096" lon="1.36535">
        <ele>157.60000610352</ele>
        <time>2015-01-27T12:16:25.000Z</time>
      </trkpt>
      <trkpt lat="43.58091" lon="1.36548">
        <ele>158</ele>
        <time>2015-01-27T12:16:28.000Z</time>
      </trkpt>
      <trkpt lat="43.58087" lon="1.36553">
        <ele>158</ele>
        <time>2015-01-27T12:16:30.000Z</time>
      </trkpt>
      <trkpt lat="43.58074" lon="1.3657">
        <ele>156.39999389648</ele>
        <time>2015-01-27T12:16:35.000Z</time>
      </trkpt>
      <trkpt lat="43.58063" lon="1.36585">
        <ele>156</ele>
        <time>2015-01-27T12:16:40.000Z</time>
      </trkpt>
      <trkpt lat="43.5805" lon="1.36603">
        <ele>155.60000610352</ele>
        <time>2015-01-27T12:16:46.000Z</time>
      </trkpt>
      <trkpt lat="43.58036" lon="1.3662">
        <ele>156.60000610352</ele>
        <time>2015-01-27T12:16:52.000Z</time>
      </trkpt>
      <trkpt lat="43.58022" lon="1.36638">
        <ele>157.39999389648</ele>
        <time>2015-01-27T12:16:58.000Z</time>
      </trkpt>
      <trkpt lat="43.58011" lon="1.36654">
        <ele>157.80000305176</ele>
        <time>2015-01-27T12:17:03.000Z</time>
      </trkpt>
      <trkpt lat="43.57997" lon="1.36672">
        <ele>157.19999694824</ele>
        <time>2015-01-27T12:17:09.000Z</time>
      </trkpt>
      <trkpt lat="43.57984" lon="1.36692">
        <ele>157</ele>
        <time>2015-01-27T12:17:15.000Z</time>
      </trkpt>
      <trkpt lat="43.57984" lon="1.36697">
        <ele>157</ele>
        <time>2015-01-27T12:17:16.000Z</time>
      </trkpt>
      <trkpt lat="43.57987" lon="1.36714">
        <ele>157.39999389648</ele>
        <time>2015-01-27T12:17:20.000Z</time>
      </trkpt>
      <trkpt lat="43.57984" lon="1.36735">
        <ele>157.80000305176</ele>
        <time>2015-01-27T12:17:25.000Z</time>
      </trkpt>
      <trkpt lat="43.57983" lon="1.36755">
        <ele>157.80000305176</ele>
        <time>2015-01-27T12:17:30.000Z</time>
      </trkpt>
      <trkpt lat="43.57991" lon="1.36778">
        <ele>158</ele>
        <time>2015-01-27T12:17:36.000Z</time>
      </trkpt>
      <trkpt lat="43.58001" lon="1.36802">
        <ele>158.39999389648</ele>
        <time>2015-01-27T12:17:42.000Z</time>
      </trkpt>
      <trkpt lat="43.58009" lon="1.36825">
        <ele>158.19999694824</ele>
        <time>2015-01-27T12:17:48.000Z</time>
      </trkpt>
      <trkpt lat="43.58017" lon="1.36849">
        <ele>157.39999389648</ele>
        <time>2015-01-27T12:17:54.000Z</time>
      </trkpt>
      <trkpt lat="43.58019" lon="1.36853">
        <ele>157.19999694824</ele>
        <time>2015-01-27T12:17:55.000Z</time>
      </trkpt>
      <trkpt lat="43.58029" lon="1.36874">
        <ele>156.60000610352</ele>
        <time>2015-01-27T12:18:01.000Z</time>
      </trkpt>
      <trkpt lat="43.58034" lon="1.36894">
        <ele>155.80000305176</ele>
        <time>2015-01-27T12:18:06.000Z</time>
      </trkpt>
      <trkpt lat="43.58038" lon="1.3692">
        <ele>155.80000305176</ele>
        <time>2015-01-27T12:18:12.000Z</time>
      </trkpt>
      <trkpt lat="43.5804" lon="1.36941">
        <ele>156.60000610352</ele>
        <time>2015-01-27T12:18:17.000Z</time>
      </trkpt>
      <trkpt lat="43.58041" lon="1.36946">
        <ele>156.80000305176</ele>
        <time>2015-01-27T12:18:18.000Z</time>
      </trkpt>
      <trkpt lat="43.5804" lon="1.36966">
        <ele>157.39999389648</ele>
        <time>2015-01-27T12:18:23.000Z</time>
      </trkpt>
      <trkpt lat="43.58039" lon="1.36989">
        <ele>158</ele>
        <time>2015-01-27T12:18:29.000Z</time>
      </trkpt>
      <trkpt lat="43.58037" lon="1.3701">
        <ele>158.19999694824</ele>
        <time>2015-01-27T12:18:34.000Z</time>
      </trkpt>
      <trkpt lat="43.58039" lon="1.3702">
        <ele>158.19999694824</ele>
        <time>2015-01-27T12:18:37.000Z</time>
      </trkpt>
      <trkpt lat="43.58041" lon="1.37024">
        <ele>158.19999694824</ele>
        <time>2015-01-27T12:18:38.000Z</time>
      </trkpt>
      <trkpt lat="43.58042" lon="1.37045">
        <ele>158.39999389648</ele>
        <time>2015-01-27T12:18:43.000Z</time>
      </trkpt>
      <trkpt lat="43.58037" lon="1.37071">
        <ele>158.80000305176</ele>
        <time>2015-01-27T12:18:49.000Z</time>
      </trkpt>
      <trkpt lat="43.58036" lon="1.37095">
        <ele>158.60000610352</ele>
        <time>2015-01-27T12:18:55.000Z</time>
      </trkpt>
      <trkpt lat="43.58036" lon="1.37121">
        <ele>158</ele>
        <time>2015-01-27T12:19:01.000Z</time>
      </trkpt>
      <trkpt lat="43.58035" lon="1.37146">
        <ele>157.39999389648</ele>
        <time>2015-01-27T12:19:07.000Z</time>
      </trkpt>
      <trkpt lat="43.58035" lon="1.37149">
        <ele>157.39999389648</ele>
        <time>2015-01-27T12:19:08.000Z</time>
      </trkpt>
      <trkpt lat="43.58036" lon="1.37173">
        <ele>157.39999389648</ele>
        <time>2015-01-27T12:19:14.000Z</time>
      </trkpt>
      <trkpt lat="43.58041" lon="1.37194">
        <ele>157.80000305176</ele>
        <time>2015-01-27T12:19:19.000Z</time>
      </trkpt>
      <trkpt lat="43.58048" lon="1.3722">
        <ele>158.39999389648</ele>
        <time>2015-01-27T12:19:25.000Z</time>
      </trkpt>
      <trkpt lat="43.58054" lon="1.37243">
        <ele>158.39999389648</ele>
        <time>2015-01-27T12:19:30.000Z</time>
      </trkpt>
      <trkpt lat="43.58059" lon="1.37264">
        <ele>158.19999694824</ele>
        <time>2015-01-27T12:19:35.000Z</time>
      </trkpt>
      <trkpt lat="43.58066" lon="1.37289">
        <ele>157.39999389648</ele>
        <time>2015-01-27T12:19:41.000Z</time>
      </trkpt>
      <trkpt lat="43.58068" lon="1.37298">
        <ele>157.19999694824</ele>
        <time>2015-01-27T12:19:43.000Z</time>
      </trkpt>
      <trkpt lat="43.58074" lon="1.37324">
        <ele>156.80000305176</ele>
        <time>2015-01-27T12:19:49.000Z</time>
      </trkpt>
      <trkpt lat="43.58076" lon="1.37329">
        <ele>156.80000305176</ele>
        <time>2015-01-27T12:19:50.000Z</time>
      </trkpt>
      <trkpt lat="43.58082" lon="1.37354">
        <ele>157.19999694824</ele>
        <time>2015-01-27T12:19:56.000Z</time>
      </trkpt>
      <trkpt lat="43.58088" lon="1.37381">
        <ele>157.60000610352</ele>
        <time>2015-01-27T12:20:02.000Z</time>
      </trkpt>
      <trkpt lat="43.58089" lon="1.37385">
        <ele>157.80000305176</ele>
        <time>2015-01-27T12:20:03.000Z</time>
      </trkpt>
      <trkpt lat="43.58096" lon="1.37412">
        <ele>157.80000305176</ele>
        <time>2015-01-27T12:20:09.000Z</time>
      </trkpt>
      <trkpt lat="43.58102" lon="1.37435">
        <ele>158</ele>
        <time>2015-01-27T12:20:14.000Z</time>
      </trkpt>
      <trkpt lat="43.58108" lon="1.37461">
        <ele>158</ele>
        <time>2015-01-27T12:20:20.000Z</time>
      </trkpt>
      <trkpt lat="43.58112" lon="1.37465">
        <ele>157.80000305176</ele>
        <time>2015-01-27T12:20:22.000Z</time>
      </trkpt>
      <trkpt lat="43.58119" lon="1.3747">
        <ele>157.80000305176</ele>
        <time>2015-01-27T12:20:24.000Z</time>
      </trkpt>
      <trkpt lat="43.58133" lon="1.37488">
        <ele>157.80000305176</ele>
        <time>2015-01-27T12:20:29.000Z</time>
      </trkpt>
      <trkpt lat="43.58133" lon="1.37506">
        <ele>158</ele>
        <time>2015-01-27T12:20:33.000Z</time>
      </trkpt>
      <trkpt lat="43.58122" lon="1.3752">
        <ele>158</ele>
        <time>2015-01-27T12:20:37.000Z</time>
      </trkpt>
      <trkpt lat="43.58106" lon="1.37535">
        <ele>158</ele>
        <time>2015-01-27T12:20:42.000Z</time>
      </trkpt>
      <trkpt lat="43.58101" lon="1.37556">
        <ele>158</ele>
        <time>2015-01-27T12:20:46.000Z</time>
      </trkpt>
      <trkpt lat="43.58096" lon="1.3758">
        <ele>158.19999694824</ele>
        <time>2015-01-27T12:20:51.000Z</time>
      </trkpt>
      <trkpt lat="43.58089" lon="1.37604">
        <ele>158.39999389648</ele>
        <time>2015-01-27T12:20:56.000Z</time>
      </trkpt>
      <trkpt lat="43.58089" lon="1.37609">
        <ele>158.60000610352</ele>
        <time>2015-01-27T12:20:57.000Z</time>
      </trkpt>
      <trkpt lat="43.58084" lon="1.37633">
        <ele>158.80000305176</ele>
        <time>2015-01-27T12:21:02.000Z</time>
      </trkpt>
      <trkpt lat="43.58083" lon="1.37638">
        <ele>159</ele>
        <time>2015-01-27T12:21:03.000Z</time>
      </trkpt>
      <trkpt lat="43.58077" lon="1.37662">
        <ele>159.19999694824</ele>
        <time>2015-01-27T12:21:08.000Z</time>
      </trkpt>
      <trkpt lat="43.58069" lon="1.37686">
        <ele>159</ele>
        <time>2015-01-27T12:21:13.000Z</time>
      </trkpt>
      <trkpt lat="43.58067" lon="1.37689">
        <ele>159</ele>
        <time>2015-01-27T12:21:14.000Z</time>
      </trkpt>
      <trkpt lat="43.58056" lon="1.37712">
        <ele>158.39999389648</ele>
        <time>2015-01-27T12:21:19.000Z</time>
      </trkpt>
      <trkpt lat="43.58043" lon="1.37735">
        <ele>158</ele>
        <time>2015-01-27T12:21:24.000Z</time>
      </trkpt>
      <trkpt lat="43.58027" lon="1.37754">
        <ele>158.19999694824</ele>
        <time>2015-01-27T12:21:29.000Z</time>
      </trkpt>
      <trkpt lat="43.58023" lon="1.37758">
        <ele>158</ele>
        <time>2015-01-27T12:21:30.000Z</time>
      </trkpt>
      <trkpt lat="43.5802" lon="1.3776">
        <ele>158</ele>
        <time>2015-01-27T12:21:31.000Z</time>
      </trkpt>
      <trkpt lat="43.58012" lon="1.37766">
        <ele>158</ele>
        <time>2015-01-27T12:21:33.000Z</time>
      </trkpt>
      <trkpt lat="43.58005" lon="1.37771">
        <ele>158.19999694824</ele>
        <time>2015-01-27T12:21:35.000Z</time>
      </trkpt>
      <trkpt lat="43.5799" lon="1.37781">
        <ele>158.39999389648</ele>
        <time>2015-01-27T12:21:39.000Z</time>
      </trkpt>
      <trkpt lat="43.57987" lon="1.37784">
        <ele>158.39999389648</ele>
        <time>2015-01-27T12:21:40.000Z</time>
      </trkpt>
      <trkpt lat="43.57969" lon="1.37795">
        <ele>157.80000305176</ele>
        <time>2015-01-27T12:21:45.000Z</time>
      </trkpt>
      <trkpt lat="43.57965" lon="1.37798">
        <ele>157.80000305176</ele>
        <time>2015-01-27T12:21:46.000Z</time>
      </trkpt>
      <trkpt lat="43.57951" lon="1.37808">
        <ele>157.39999389648</ele>
        <time>2015-01-27T12:21:50.000Z</time>
      </trkpt>
      <trkpt lat="43.57944" lon="1.37814">
        <ele>157.19999694824</ele>
        <time>2015-01-27T12:21:52.000Z</time>
      </trkpt>
      <trkpt lat="43.5793" lon="1.37824">
        <ele>157.19999694824</ele>
        <time>2015-01-27T12:21:56.000Z</time>
      </trkpt>
      <trkpt lat="43.57923" lon="1.37829">
        <ele>157.19999694824</ele>
        <time>2015-01-27T12:21:58.000Z</time>
      </trkpt>
    </trkseg>
  </trk>
</gpx>